Latest Weather Observations for Edithburgh

IDS60801

Issued at 8:01 pm CST Sunday 24 July 2016 (issued every 30 minutes, with the page automatically refreshed every 10 minutes)

About weather observations | Map of weather stations | Latest weather observations for SA | Other Formats
Station Details ID: 022046 Name: EDITHBURGH Lat: -35.11 Lon: 137.74 Height: 6.0 m
Data from the previous 72 hours. | See also: Recent months at Edithburgh
Date/Time
CST
Temp
°C
App
Temp
°C
Dew
Point
°C
Rel
Hum
%
Delta-T
°C
Wind Press
QNH
hPa
Press
MSL
hPa
Rain since
9am
mm
Dir  Spd
km/h
Gust
km/h
Spd
kts
Gust
kts
24/08:00pm 10.4 4.0 6.8 78 1.7 WNW 30 43 16 23 1011.1 1011.1 4.8
24/07:48pm 10.8 3.4 6.8 76 1.9 W 35 54 19 29 1011.0 1011.0 4.8
24/07:30pm 11.1 3.0 7.1 76 1.9 W 39 54 21 29 1010.5 1010.5 4.8
24/07:04pm 10.8 2.1 7.5 80 1.6 W 43 72 23 39 1010.1 1010.1 4.4
24/07:00pm 10.5 1.5 7.4 81 1.5 W 44 61 24 33 1010.2 1010.2 4.4
24/06:30pm 10.7 2.8 8.0 83 1.3 W 39 52 21 28 1009.5 1009.5 4.0
24/06:00pm 10.7 3.6 8.0 83 1.3 WNW 35 56 19 30 1009.0 1009.0 3.8
24/05:32pm 10.5 2.2 7.6 82 1.4 W 41 61 22 33 1008.5 1008.5 3.2
24/05:30pm 10.4 1.7 7.5 82 1.4 W 43 61 23 33 1008.6 1008.6 3.2
24/05:00pm 11.0 2.3 7.9 81 1.5 W 43 61 23 33 1007.8 1007.8 3.0
24/04:30pm 11.9 2.4 6.9 71 2.4 WNW 46 69 25 37 1007.2 1007.2 2.6
24/04:01pm 11.8 2.4 7.0 72 2.3 WNW 46 67 25 36 1006.6 1006.6 2.6
24/04:00pm 11.9 2.9 7.4 74 2.2 WNW 44 63 24 34 1006.8 1006.8 2.6
24/03:30pm 12.5 3.2 7.4 71 2.5 WNW 46 61 25 33 1006.5 1006.5 2.6
24/03:00pm 10.8 3.5 7.3 79 1.7 WNW 35 59 19 32 1006.6 1006.6 2.6
24/02:30pm 10.9 1.1 6.9 76 1.9 W 48 70 26 38 1006.7 1006.7 2.2
24/02:27pm 10.8 0.6 7.0 77 1.8 W 50 70 27 38 1006.7 1006.7 2.2
24/02:24pm 10.8 0.1 6.6 75 2.0 WNW 52 70 28 38 1006.6 1006.6 2.2
24/02:00pm 11.3 3.1 6.7 73 2.2 W 39 59 21 32 1006.6 1006.6 2.2
24/01:51pm 11.4 2.8 6.5 72 2.3 WNW 41 59 22 32 1006.6 1006.6 1.8
24/01:30pm 12.4 3.3 5.8 64 3.1 WNW 43 57 23 31 1006.6 1006.6 1.6
24/01:00pm 11.8 4.2 5.8 66 2.8 W 35 50 19 27 1007.0 1007.0 1.6
24/12:46pm 10.3 0.9 5.5 72 2.2 WSW 44 63 24 34 1007.1 1007.1 1.6
24/12:41pm 10.5 0.6 4.7 67 2.6 W 46 69 25 37 1007.1 1007.1 1.6
24/12:36pm 12.7 3.3 4.6 58 3.7 WNW 43 69 23 37 1006.8 1006.8 1.6
24/12:30pm 12.3 2.7 4.4 58 3.6 W 44 59 24 32 1007.0 1007.0 1.6
24/12:19pm 11.8 4.6 5.8 66 2.8 W 33 67 18 36 1007.1 1007.1 1.6
24/12:00pm 11.5 4.5 6.7 72 2.3 W 33 48 18 26 1007.3 1007.3 1.6
24/11:30am 8.4 -0.3 5.8 84 1.2 WNW 41 69 22 37 1007.4 1007.4 1.6
24/11:25am 12.0 5.6 7.0 71 2.4 WNW 30 50 16 27 1007.0 1007.0 0.4
24/11:00am 10.8 4.8 7.0 77 1.8 NW 28 37 15 20 1007.3 1007.3 0.4
24/10:30am 9.7 2.6 6.5 80 1.5 NW 33 43 18 23 1007.2 1007.2 0.4
24/10:11am 9.1 1.1 5.6 79 1.6 NW 37 57 20 31 1007.0 1007.0 0.4
24/10:00am 9.3 2.3 6.0 80 1.5 NW 32 41 17 22 1007.2 1007.2 0.4
24/09:30am 8.4 3.1 6.7 89 0.8 NW 24 33 13 18 1007.1 1007.1 0.4
24/09:00am 8.0 3.0 6.3 89 0.8 WNW 22 32 12 17 1007.1 1007.1 7.8
24/08:30am 7.8 -0.2 5.6 86 1.0 WNW 37 61 20 33 1006.9 1006.9 6.4
24/08:27am 7.7 -0.7 5.5 86 1.0 NW 39 61 21 33 1006.9 1006.9 6.2
24/08:24am 10.3 2.8 7.8 84 1.2 NW 37 59 20 32 1007.0 1007.0 5.4
24/08:00am 10.1 2.9 7.6 84 1.2 NNW 35 48 19 26 1006.1 1006.1 4.6
24/07:30am 10.0 2.1 7.7 86 1.1 NNW 39 50 21 27 1006.1 1006.1 4.4
24/07:00am 10.3 3.1 7.6 83 1.3 NNW 35 48 19 26 1006.2 1006.2 4.4
24/06:30am 10.3 3.8 8.3 87 1.0 NNW 32 43 17 23 1006.3 1006.3 4.4
24/06:00am 10.0 3.6 8.6 91 0.7 NNW 32 43 17 23 1007.0 1007.0 4.4
24/05:30am 9.5 3.8 8.3 92 0.6 NNW 28 39 15 21 1007.5 1007.5 4.2
24/05:00am 9.2 4.9 7.7 90 0.7 N 20 37 11 20 1008.0 1008.0 3.6
24/04:30am 8.9 4.0 7.0 88 0.9 N 22 32 12 17 1008.5 1008.5 2.2
24/04:00am 8.7 4.2 6.3 85 1.1 N 19 26 10 14 1008.9 1008.9 1.8
24/03:30am 7.7 3.1 5.7 87 0.9 N 19 26 10 14 1009.7 1009.7 1.8
24/03:00am 7.3 2.7 5.5 88 0.8 N 19 26 10 14 1009.9 1009.9 1.8
24/02:30am 7.4 3.2 5.6 88 0.8 N 17 24 9 13 1010.8 1010.8 1.8
24/02:00am 7.4 3.2 5.8 90 0.7 N 17 20 9 11 1011.0 1011.0 1.8
24/01:30am 7.5 3.7 5.7 88 0.8 N 15 20 8 11 1011.5 1011.5 1.8
24/01:00am 7.0 3.5 5.4 89 0.7 N 13 19 7 10 1012.0 1012.0 1.8
24/12:30am 7.0 3.4 5.2 88 0.8 N 13 19 7 10 1012.7 1012.7 1.8
24/12:00am 6.9 2.6 5.3 89 0.7 N 17 20 9 11 1013.2 1013.2 1.8
 
Date/Time
CST
Temp
°C
App
Temp
°C
Dew
Point
°C
Rel
Hum
%
Delta-T
°C
Wind Press
QNH
hPa
Press
MSL
hPa
Rain since
9am
mm
Dir  Spd
km/h
Gust
km/h
Spd
kts
Gust
kts
23/11:30pm 6.7 3.5 5.1 89 0.7 NNW 11 15 6 8 1013.7 1013.7 1.8
23/11:00pm 8.3 5.1 6.8 90 0.7 N 13 19 7 10 1014.0 1014.0 1.8
23/10:30pm 7.3 3.9 6.0 91 0.6 N 13 15 7 8 1014.4 1014.4 1.4
23/10:00pm 6.2 2.6 4.8 91 0.6 N 13 15 7 8 1014.5 1014.5 1.4
23/09:30pm 6.5 3.0 5.4 93 0.5 NNW 13 15 7 8 1014.5 1014.5 1.4
23/09:00pm 7.0 4.0 5.9 93 0.5 NNW 11 13 6 7 1014.8 1014.8 1.4
23/08:30pm 7.8 4.9 6.5 91 0.6 NNW 11 15 6 8 1014.9 1014.9 1.4
23/08:00pm 8.5 4.6 7.0 90 0.7 NW 17 30 9 16 1015.2 1015.2 1.4
23/07:30pm 6.8 4.1 5.7 93 0.5 NNW 9 9 5 5 1015.1 1015.1 1.2
23/07:00pm 8.0 6.9 6.7 91 0.6 NW 2 6 1 3 1015.0 1015.0 1.2
23/06:30pm 7.7 5.8 6.8 94 0.4 NNW 6 7 3 4 1015.0 1015.0 1.2
23/06:00pm 8.4 6.6 7.1 91 0.6 N 6 6 3 3 1014.7 1014.7 1.2
23/05:30pm 9.4 7.6 7.9 90 0.7 NNW 7 9 4 5 1014.7 1014.7 1.2
23/05:00pm 9.6 7.5 6.8 83 1.3 NNW 7 11 4 6 1014.5 1014.5 1.2
23/04:30pm 10.4 7.2 7.0 79 1.6 NW 13 17 7 9 1014.6 1014.6 1.2
23/04:00pm 10.6 7.8 7.0 78 1.7 NW 11 15 6 8 1014.6 1014.6 1.2
23/03:30pm 10.7 8.7 7.1 78 1.7 NW 7 11 4 6 1014.8 1014.8 1.2
23/03:00pm 9.4 4.5 6.8 84 1.2 WNW 22 37 12 20 1014.9 1014.9 1.0
23/02:30pm 12.7 9.1 5.1 60 3.5 WNW 13 17 7 9 1014.6 1014.6 0.0
23/02:00pm 12.2 9.3 4.5 59 3.5 W 9 17 5 9 1014.6 1014.6 0.0
23/01:30pm 12.1 9.3 3.3 55 3.9 WSW 7 9 4 5 1014.7 1014.7 0.0
23/01:00pm 10.7 7.0 6.2 74 2.1 W 15 28 8 15 1014.9 1014.9 0.0
23/12:30pm 11.8 7.6 3.7 57 3.6 WSW 15 28 8 15 1014.9 1014.9 0.0
23/12:00pm 12.7 9.5 3.2 52 4.2 WSW 9 17 5 9 1015.0 1015.0 0.0
23/11:30am 12.7 8.7 2.6 50 4.4 SW 13 20 7 11 1015.4 1015.4 0.0
23/11:00am 13.1 9.2 3.5 52 4.3 SW 13 19 7 10 1015.3 1015.3 0.0
23/10:30am 12.5 9.2 4.3 57 3.7 SW 11 17 6 9 1015.4 1015.4 0.0
23/10:00am 11.9 8.2 4.4 60 3.4 SSW 13 20 7 11 1015.0 1015.0 0.0
23/09:30am 11.6 7.9 4.3 61 3.3 SSW 13 20 7 11 1014.6 1014.6 0.0
23/09:00am 11.4 7.0 4.5 62 3.1 SSW 17 20 9 11 1014.3 1014.3 2.6
23/08:30am 10.5 5.4 3.9 63 2.9 SSW 20 30 11 16 1013.8 1013.8 2.6
23/08:00am 10.4 5.4 3.8 63 2.9 SW 19 28 10 15 1013.2 1013.2 2.6
23/07:30am 9.9 5.1 4.5 69 2.4 SW 19 28 10 15 1012.8 1012.8 2.6
23/07:00am 10.2 4.4 4.6 68 2.5 SW 24 33 13 18 1012.3 1012.3 2.6
23/06:30am 10.0 4.6 4.6 69 2.4 SW 22 30 12 16 1011.9 1011.9 2.6
23/06:00am 10.7 5.5 5.5 70 2.4 SW 22 32 12 17 1011.4 1011.4 2.6
23/05:30am 10.0 5.8 5.6 74 2.0 SW 17 24 9 13 1011.0 1011.0 2.6
23/05:00am 10.2 5.4 5.6 73 2.1 SW 20 28 11 15 1010.5 1010.5 2.6
23/04:30am 10.6 5.8 5.4 70 2.4 SW 20 30 11 16 1010.2 1010.2 2.6
23/04:00am 10.4 6.6 5.9 73 2.1 WSW 15 20 8 11 1009.9 1009.9 2.6
23/03:30am 10.3 6.6 6.2 76 1.9 SW 15 22 8 12 1009.6 1009.6 2.6
23/03:00am 9.1 6.7 7.0 87 1.0 WNW 9 11 5 6 1009.5 1009.5 2.6
23/02:30am 10.2 6.9 6.3 77 1.8 WSW 13 20 7 11 1009.2 1009.2 2.6
23/02:00am 10.3 6.5 6.0 75 2.0 WSW 15 24 8 13 1008.9 1008.9 2.6
23/01:30am 10.5 5.0 5.7 72 2.2 W 24 33 13 18 1008.4 1008.4 2.6
23/01:00am 10.3 5.5 5.7 73 2.1 WSW 20 32 11 17 1007.9 1007.9 2.6
23/12:36am 11.1 4.9 6.2 72 2.3 WSW 28 52 15 28 1007.5 1007.5 2.4
23/12:30am 10.4 5.0 6.3 76 1.9 W 24 33 13 18 1007.5 1007.5 2.4
23/12:00am 11.1 4.0 6.2 72 2.3 WSW 33 54 18 29 1007.1 1007.1 2.4
 
Date/Time
CST
Temp
°C
App
Temp
°C
Dew
Point
°C
Rel
Hum
%
Delta-T
°C
Wind Press
QNH
hPa
Press
MSL
hPa
Rain since
9am
mm
Dir  Spd
km/h
Gust
km/h
Spd
kts
Gust
kts
22/11:30pm 11.2 3.1 5.1 66 2.8 W 37 57 20 31 1006.6 1006.6 2.4
22/11:06pm 11.4 2.6 3.5 58 3.5 WSW 39 59 21 32 1005.8 1005.8 2.4
22/11:00pm 11.1 2.9 5.0 66 2.8 WSW 37 56 20 30 1005.9 1005.9 2.4
22/10:51pm 11.0 3.6 5.1 67 2.7 W 33 56 18 30 1005.6 1005.6 2.4
22/10:30pm 10.8 2.5 4.3 64 2.9 W 37 52 20 28 1005.4 1005.4 2.4
22/10:00pm 10.9 2.1 3.7 61 3.2 W 39 54 21 29 1004.7 1004.7 2.4
22/09:30pm 10.9 2.8 5.2 68 2.6 WNW 37 57 20 31 1004.3 1004.3 2.4
22/09:04pm 10.5 3.7 5.0 69 2.5 WNW 30 52 16 28 1003.9 1003.9 2.4
22/09:00pm 10.1 4.1 5.5 73 2.1 WNW 26 35 14 19 1004.0 1004.0 2.4
22/08:30pm 9.9 2.7 5.0 71 2.2 WNW 32 39 17 21 1003.8 1003.8 2.4
22/08:00pm 10.1 2.1 5.5 73 2.1 WNW 37 50 20 27 1003.4 1003.4 2.4
22/07:30pm 9.8 1.0 5.4 74 2.0 WNW 41 50 22 27 1003.0 1003.0 2.4
22/07:10pm 10.0 1.8 4.9 70 2.3 WNW 37 56 20 30 1002.6 1002.6 2.4
22/07:00pm 9.7 3.2 6.7 81 1.4 NW 30 43 16 23 1002.4 1002.4 2.4
22/06:30pm 9.4 3.6 6.2 80 1.5 WNW 26 33 14 18 1002.2 1002.2 2.4
22/06:00pm 9.8 0.8 4.7 70 2.3 WNW 41 65 22 35 1001.8 1001.8 2.4
22/05:34pm 11.0 4.6 8.4 84 1.3 WNW 32 67 17 36 1001.7 1001.7 2.2
22/05:30pm 11.1 5.8 8.3 83 1.4 WNW 26 35 14 19 1001.1 1001.1 2.2
22/05:00pm 11.3 5.5 8.0 80 1.6 WNW 28 37 15 20 1000.5 1000.5 2.0
22/04:30pm 10.9 5.0 9.1 89 0.9 WNW 30 43 16 23 1000.5 1000.5 2.0
22/04:00pm 11.4 2.3 6.6 72 2.3 WNW 44 67 24 36 1000.2 1000.2 1.4
22/03:48pm 11.4 2.4 7.3 76 2.0 WNW 44 65 24 35 999.9 999.9 1.4
22/03:40pm 12.2 4.4 8.4 77 1.9 WNW 39 70 21 38 999.8 999.8 1.4
22/03:37pm 12.7 6.2 8.9 78 1.9 WNW 33 54 18 29 999.7 999.7 1.2
22/03:30pm 12.7 6.2 8.9 78 1.9 WNW 33 43 18 23 999.7 999.7 1.2
22/03:00pm 11.3 4.0 8.9 85 1.2 WNW 37 52 20 28 999.6 999.6 1.2
22/02:54pm 11.1 1.7 8.9 86 1.1 WNW 48 72 26 39 999.5 999.5 1.2
22/02:42pm 12.6 3.9 8.4 75 2.1 WNW 44 76 24 41 999.2 999.2 0.2
22/02:41pm 12.6 3.8 8.2 74 2.2 WNW 44 76 24 41 999.0 999.0 0.2
22/02:40pm 12.7 4.3 8.9 78 1.9 WNW 43 76 23 41 999.1 999.1 0.0
22/02:30pm 13.6 4.9 8.4 71 2.6 NW 44 57 24 31 999.0 999.0 0.0
22/02:00pm 15.1 7.7 9.9 71 2.7 NW 39 50 21 27 999.2 999.2 0.0
22/01:30pm 15.9 9.0 10.2 69 3.0 NW 37 50 20 27 999.4 999.4 0.0
22/01:00pm 15.7 9.0 11.0 73 2.5 NNW 37 46 20 25 999.6 999.6 0.0
22/12:30pm 14.5 8.8 11.1 80 1.8 NW 32 41 17 22 1000.4 1000.4 0.0
22/12:00pm 14.7 7.0 10.3 75 2.3 NW 41 50 22 27 1000.7 1000.7 0.0
22/11:30am 15.8 7.8 10.3 70 2.9 NW 43 56 23 30 1001.0 1001.0 0.0
22/11:24am 16.5 9.7 10.7 68 3.1 NW 37 56 20 30 1001.0 1001.0 0.0
22/11:00am 15.8 9.7 11.8 77 2.2 NW 35 46 19 25 1001.3 1001.3 0.0
22/10:30am 14.3 8.5 10.7 79 1.9 NW 32 46 17 25 1001.9 1001.9 0.0
22/10:00am 14.4 8.7 11.2 81 1.7 NNW 32 43 17 23 1002.2 1002.2 0.0
22/09:30am 14.2 9.8 11.6 84 1.4 NNW 26 33 14 18 1002.4 1002.4 0.0
22/09:00am 13.8 10.1 11.6 86 1.2 NNW 22 32 12 17 1002.7 1002.7 0.0
22/08:30am 13.6 9.8 11.3 86 1.2 NNW 22 30 12 16 1002.6 1002.6 0.0
22/08:00am 13.5 9.8 11.4 87 1.1 NNW 22 32 12 17 1002.5 1002.5 0.0
22/07:30am 13.4 9.3 11.3 87 1.1 NW 24 32 13 17 1002.6 1002.6 0.0
22/07:00am 13.6 9.1 11.3 86 1.2 NW 26 33 14 18 1002.3 1002.3 0.0
22/06:30am 13.6 9.2 11.7 88 1.0 NW 26 33 14 18 1001.9 1001.9 0.0
22/06:00am 13.7 9.8 12.0 89 0.9 NW 24 32 13 17 1001.8 1001.8 0.0
22/05:30am 13.7 9.3 11.8 88 1.0 NW 26 33 14 18 1001.9 1001.9 0.0
22/05:00am 14.0 9.0 12.3 89 0.9 NW 30 37 16 20 1001.9 1001.9 0.0
22/04:30am 14.1 9.2 12.5 90 0.9 NW 30 39 16 21 1001.8 1001.8 0.0
22/04:00am 14.2 9.7 12.7 91 0.8 NW 28 37 15 20 1002.0 1002.0 0.0
22/03:30am 14.4 10.0 13.0 91 0.8 NW 28 35 15 19 1002.7 1002.7 0.0
22/03:00am 14.4 10.4 13.0 91 0.8 NW 26 32 14 17 1002.6 1002.6 0.0
22/02:30am 14.7 10.6 12.7 88 1.1 NW 26 33 14 18 1002.8 1002.8 0.0
22/02:00am 14.6 11.6 12.6 88 1.1 NW 20 24 11 13 1002.9 1002.9 0.0
22/01:30am 14.7 11.7 12.5 87 1.2 NW 20 26 11 14 1003.0 1003.0 0.0
22/01:00am 14.7 11.7 12.7 88 1.1 NW 20 26 11 14 1003.4 1003.4 0.0
22/12:30am 14.4 12.4 12.6 89 1.0 NW 15 19 8 10 1003.9 1003.9 0.0
22/12:00am 14.7 13.0 12.3 85 1.3 NW 13 17 7 9 1003.8 1003.8 0.0
 
Date/Time
CST
Temp
°C
App
Temp
°C
Dew
Point
°C
Rel
Hum
%
Delta-T
°C
Wind Press
QNH
hPa
Press
MSL
hPa
Rain since
9am
mm
Dir  Spd
km/h
Gust
km/h
Spd
kts
Gust
kts
21/11:30pm 15.4 13.0 12.5 83 1.6 NW 17 20 9 11 1004.0 1004.0 0.0
21/11:00pm 15.9 13.2 13.0 83 1.6 WNW 19 20 10 11 1004.4 1004.4 0.0
21/10:30pm 16.3 14.5 13.3 82 1.7 WNW 15 19 8 10 1004.2 1004.2 0.0
21/10:00pm 17.3 14.8 13.4 78 2.2 WNW 19 24 10 13 1004.3 1004.3 0.0
21/09:30pm 18.4 13.3 13.1 71 3.0 NW 32 41 17 22 1004.0 1004.0 0.0
21/09:09pm 19.3 14.6 13.3 68 3.4 WNW 30 50 16 27 1003.9 1003.9 0.0
21/09:00pm 19.6 16.2 13.7 68 3.4 N 24 32 13 17 1003.3 1003.3 0.0
21/08:30pm 19.6 16.7 13.9 69 3.3 N 22 32 12 17 1003.4 1003.4 0.0

Other Formats:

Comma delimited format used in spreadsheet applications
http://www.bom.gov.au/fwo/IDS60801/IDS60801.94809.axf

JavaScript Object Notation format (JSON) in row-major order
http://www.bom.gov.au/fwo/IDS60801/IDS60801.94809.json